Portada
METAR-TAF:

METAR-TAF

Aeroports :

Ballina, Austràlia

latitud: 28-50-00S, longitud: 153-33-42E, altitud: 2 m

Observació

L'informe es va fer fa 39 minuts, a les 20:00 UTC
Vent 3 kt del Nord
Temperatura 16°C
Humitat 94%
Pressió 1015 hPa
Visibilitat 10 km o més
Cel cobert a una alçada de 4200 ft

METAR: YBNA 132000Z AUTO 36003KT 9999 // OVC042 16/15 Q1015

Hora: 07:39 (20:39 UTC)


TAF: manca

Observacions i pronòstics meteorològics de més de 4000 aeroports (METAR i TAF).

Les estacions disponibles són els punts grocs i vermells al mapa.

Posi el ratolí al punt desitjat per veure el nom de l'estació.

Feu clic per veure les observacions i els pronòstics meteorològics.

Per canviar el mapa: feu clic els botons verds amb una creu de color negre per apropar; al botó verd amb un guió per allunyar la imatge; o en les fletxes verdes per a mapes adjacents.


METAR-TAF: